Terminal Aerodrome Forecast
Issued by NWS Sterling, VA

Home | Current Version | Previous Version | Text Only | Print | Product List | Glossary On
Versions: 1 2 3 4 5 6 7 8 9 10 11 12 13 14 15 16 17 18 19 20 21 22 23 24 25 26 27 28 29 30 31
845
FTUS41 KLWX 182327
TAFBWI
TAF
KBWI 182327Z 1900/2006 VRB03KT P6SM FEW250
     FM191300 17005KT P6SM BKN060
     FM191700 18006KT P6SM OVC025
     FM191900 18006KT 5SM BR OVC020
     FM200000 18006KT 6SM BR OVC050
     FM200500 20006KT P6SM BKN150 WS020/23035KT=

USA.gov is the U.S. government's official web portal to all federal, state and local government web resources and services.